Time;durP1;ratioP1;P1;durP2;ratioP2;P2;SDS_P1;SDS_P2;PMS_P1;PMS_P2;Temp;Humidity;BMP_temperature;BMP_pressure;BME280_temperature;BME280_humidity;BME280_pressure;Samples;Min_cycle;Max_cycle;Signal;HPM_P1;HPM_P2
2023/05/17 00:01:45;;;;;;;1999.90;999.90;;;;;;;;;;6307611;22;20018;-74
2023/05/17 00:04:11;;;;;;;1999.90;999.90;;;;;;;;;;6335340;22;20018;-74
2023/05/17 00:06:37;;;;;;;1999.90;999.90;;;;;;;;;;6335146;22;20015;-73
2023/05/17 00:09:03;;;;;;;1999.90;999.90;;;;;;;;;;6335059;22;20065;-74
2023/05/17 00:11:29;;;;;;;1999.90;999.90;;;;;;;;;;6335523;22;20007;-74
2023/05/17 00:13:55;;;;;;;1999.90;999.90;;;;;;;;;;6306127;22;20086;-74
2023/05/17 00:16:21;;;;;;;1999.90;999.90;;;;;;;;;;6334332;22;20101;-74
2023/05/17 00:18:47;;;;;;;1999.90;999.90;;;;;;;;;;6308081;22;20014;-74
2023/05/17 00:21:13;;;;;;;1999.90;999.90;;;;;;;;;;6307340;22;20018;-74
2023/05/17 00:23:39;;;;;;;1999.90;999.90;;;;;;;;;;6335456;22;20086;-74
2023/05/17 00:26:05;;;;;;;1999.90;999.90;;;;;;;;;;6281526;22;20019;-74
2023/05/17 00:28:31;;;;;;;1999.90;999.90;;;;;;;;;;6307611;22;20402;-74
2023/05/17 00:30:57;;;;;;;1999.90;999.90;;;;;;;;;;6306416;22;20014;-74
2023/05/17 00:33:23;;;;;;;1999.90;999.90;;;;;;;;;;6335286;22;20331;-74
2023/05/17 00:35:49;;;;;;;1999.90;999.90;;;;;;;;;;6335281;22;20099;-74
2023/05/17 00:38:15;;;;;;;1999.90;999.90;;;;;;;;;;6334928;22;20007;-74
2023/05/17 00:40:41;;;;;;;1999.90;999.90;;;;;;;;;;6334476;22;20305;-74
2023/05/17 00:43:07;;;;;;;1999.90;999.90;;;;;;;;;;6306932;22;20027;-73
2023/05/17 00:45:33;;;;;;;1999.90;999.90;;;;;;;;;;6334140;22;20011;-73
2023/05/17 00:47:59;;;;;;;1999.90;999.90;;;;;;;;;;6306452;22;20111;-74
2023/05/17 00:50:25;;;;;;;1999.90;999.90;;;;;;;;;;6306783;22;20353;-74
2023/05/17 00:52:51;;;;;;;1999.90;999.90;;;;;;;;;;6335450;22;20328;-73
2023/05/17 00:55:18;;;;;;;1999.90;999.90;;;;;;;;;;6333779;22;20007;-74
2023/05/17 00:57:45;;;;;;;1999.90;999.90;;;;;;;;;;6334804;22;20011;-73
2023/05/17 01:00:11;;;;;;;1999.90;999.90;;;;;;;;;;6334125;22;20015;-73
2023/05/17 01:02:37;;;;;;;1999.90;999.90;;;;;;;;;;6307182;22;20019;-73
2023/05/17 01:05:03;;;;;;;1999.90;999.90;;;;;;;;;;6333785;22;20029;-73
2023/05/17 01:07:29;;;;;;;1999.90;999.90;;;;;;;;;;6306769;22;20015;-73
2023/05/17 01:09:55;;;;;;;1999.90;999.90;;;;;;;;;;6333567;22;20017;-74
2023/05/17 01:12:35;;;;;;;1999.90;999.90;;;;;;;;;;6335134;22;20018;-74
2023/05/17 01:15:01;;;;;;;1999.90;999.90;;;;;;;;;;6305674;22;20085;-74
2023/05/17 01:17:45;;;;;;;1999.90;999.90;;;;;;;;;;6307356;22;20096;-74
2023/05/17 01:20:11;;;;;;;1999.90;999.90;;;;;;;;;;6306448;22;20003;-74
2023/05/17 01:22:44;;;;;;;1999.90;999.90;;;;;;;;;;6334778;22;20026;-74
2023/05/17 01:25:17;;;;;;;1999.90;999.90;;;;;;;;;;6334244;22;20011;-74
2023/05/17 01:27:44;;;;;;;1999.90;999.90;;;;;;;;;;6334581;22;20007;-73
2023/05/17 01:30:12;;;;;;;1999.90;999.90;;;;;;;;;;6306158;22;20348;-74
2023/05/17 01:32:41;;;;;;;1999.90;999.90;;;;;;;;;;6306435;22;20321;-74
2023/05/17 01:35:07;;;;;;;1999.90;999.90;;;;;;;;;;6333961;22;20462;-74
2023/05/17 01:37:33;;;;;;;1999.90;999.90;;;;;;;;;;6334409;22;20042;-74
2023/05/17 01:39:59;;;;;;;1999.90;999.90;;;;;;;;;;6334239;22;20309;-74
2023/05/17 01:42:30;;;;;;;1999.90;999.90;;;;;;;;;;6334284;22;20099;-74
2023/05/17 01:45:02;;;;;;;1999.90;999.90;;;;;;;;;;6305969;22;20026;-74
2023/05/17 01:47:34;;;;;;;1999.90;999.90;;;;;;;;;;6306865;22;20042;-73
2023/05/17 01:50:01;;;;;;;1999.90;999.90;;;;;;;;;;6306469;22;20015;-73
2023/05/17 01:52:48;;;;;;;1999.90;999.90;;;;;;;;;;6333920;22;20025;-74
2023/05/17 01:55:17;;;;;;;1999.90;999.90;;;;;;;;;;6334070;22;20015;-73
2023/05/17 01:57:44;;;;;;;1999.90;999.90;;;;;;;;;;6306797;22;20106;-73
2023/05/17 02:00:11;;;;;;;1999.90;999.90;;;;;;;;;;6333669;22;20015;-73
2023/05/17 02:02:37;;;;;;;1999.90;999.90;;;;;;;;;;6334713;22;20015;-73
2023/05/17 02:05:03;;;;;;;1999.90;999.90;;;;;;;;;;6333534;22;20430;-74
2023/05/17 02:07:29;;;;;;;1999.90;999.90;;;;;;;;;;6334245;22;20078;-73
2023/05/17 02:09:55;;;;;;;1999.90;999.90;;;;;;;;;;6334151;22;20018;-73
2023/05/17 02:12:21;;;;;;;1999.90;999.90;;;;;;;;;;6333966;22;20183;-73
2023/05/17 02:14:47;;;;;;;1999.90;999.90;;;;;;;;;;6334339;22;20371;-73
2023/05/17 02:17:13;;;;;;;1999.90;999.90;;;;;;;;;;6333146;22;20015;-74
2023/05/17 02:19:39;;;;;;;1999.90;999.90;;;;;;;;;;6334178;22;20062;-73
2023/05/17 02:22:05;;;;;;;1999.90;999.90;;;;;;;;;;6333340;22;20076;-73
2023/05/17 02:24:31;;;;;;;1999.90;999.90;;;;;;;;;;6306555;22;20015;-73
2023/05/17 02:26:57;;;;;;;1999.90;999.90;;;;;;;;;;6333319;22;20037;-74
2023/05/17 02:29:23;;;;;;;1999.90;999.90;;;;;;;;;;6332861;22;20309;-74
2023/05/17 02:31:49;;;;;;;1999.90;999.90;;;;;;;;;;6334708;22;20046;-74
2023/05/17 02:34:15;;;;;;;1999.90;999.90;;;;;;;;;;6305842;22;20049;-74
2023/05/17 02:36:43;;;;;;;1999.90;999.90;;;;;;;;;;6306603;22;20448;-73
2023/05/17 02:39:09;;;;;;;1999.90;999.90;;;;;;;;;;6306136;22;20026;-74
2023/05/17 02:41:35;;;;;;;1999.90;999.90;;;;;;;;;;6305807;22;20044;-74
2023/05/17 02:44:01;;;;;;;1999.90;999.90;;;;;;;;;;6333655;22;20010;-73
2023/05/17 02:46:27;;;;;;;1999.90;999.90;;;;;;;;;;6279306;22;20015;-73
2023/05/17 02:48:53;;;;;;;1999.90;999.90;;;;;;;;;;6331481;22;20022;-73
2023/05/17 02:51:19;;;;;;;1999.90;999.90;;;;;;;;;;6280250;22;20037;-73
2023/05/17 02:53:45;;;;;;;1999.90;999.90;;;;;;;;;;6306802;22;20015;-74
2023/05/17 02:56:11;;;;;;;1999.90;999.90;;;;;;;;;;6333490;22;20011;-74
2023/05/17 02:58:37;;;;;;;1999.90;999.90;;;;;;;;;;6306782;22;20439;-73
2023/05/17 03:01:03;;;;;;;1999.90;999.90;;;;;;;;;;6334000;22;20305;-74
2023/05/17 03:03:30;;;;;;;1999.90;999.90;;;;;;;;;;6305321;22;20025;-74
2023/05/17 03:06:00;;;;;;;1999.90;999.90;;;;;;;;;;6333374;22;20014;-74
2023/05/17 03:08:26;;;;;;;1999.90;999.90;;;;;;;;;;6334206;22;20092;-74
2023/05/17 03:10:52;;;;;;;1999.90;999.90;;;;;;;;;;6333676;22;20022;-74
2023/05/17 03:13:18;;;;;;;1999.90;999.90;;;;;;;;;;6334327;22;20056;-74
2023/05/17 03:15:44;;;;;;;1999.90;999.90;;;;;;;;;;6306626;22;20015;-74
2023/05/17 03:18:10;;;;;;;1999.90;999.90;;;;;;;;;;6304302;22;20050;-73
2023/05/17 03:20:36;;;;;;;1999.90;999.90;;;;;;;;;;6305329;22;20021;-73
2023/05/17 03:23:02;;;;;;;1999.90;999.90;;;;;;;;;;6305926;22;20014;-74
2023/05/17 03:25:28;;;;;;;1999.90;999.90;;;;;;;;;;6333161;22;20432;-73
2023/05/17 03:27:54;;;;;;;1999.90;999.90;;;;;;;;;;6333880;22;20007;-74
2023/05/17 03:30:20;;;;;;;1999.90;999.90;;;;;;;;;;6334138;22;20007;-74
2023/05/17 03:32:46;;;;;;;1999.90;999.90;;;;;;;;;;6305953;22;20072;-73
2023/05/17 03:35:12;;;;;;;1999.90;999.90;;;;;;;;;;6334140;22;20014;-73
2023/05/17 03:37:38;;;;;;;1999.90;999.90;;;;;;;;;;6335571;22;20098;-73
2023/05/17 03:40:04;;;;;;;1999.90;999.90;;;;;;;;;;6307214;22;20014;-74
2023/05/17 03:42:30;;;;;;;1999.90;999.90;;;;;;;;;;6335574;22;20169;-74
2023/05/17 03:44:56;;;;;;;1999.90;999.90;;;;;;;;;;6307451;22;20022;-74
2023/05/17 03:47:22;;;;;;;1999.90;999.90;;;;;;;;;;6307105;22;20015;-73
2023/05/17 03:49:49;;;;;;;1999.90;999.90;;;;;;;;;;6307925;22;20033;-74
2023/05/17 03:52:15;;;;;;;1999.90;999.90;;;;;;;;;;6335233;22;20011;-74
2023/05/17 03:54:41;;;;;;;1999.90;999.90;;;;;;;;;;6307430;22;20017;-74
2023/05/17 03:57:07;;;;;;;1999.90;999.90;;;;;;;;;;6307658;22;20085;-74
2023/05/17 03:59:33;;;;;;;1999.90;999.90;;;;;;;;;;6308146;22;20011;-74
2023/05/17 04:02:00;;;;;;;1999.90;999.90;;;;;;;;;;6307155;22;20046;-74
2023/05/17 04:04:26;;;;;;;1999.90;999.90;;;;;;;;;;6334775;22;20018;-74
2023/05/17 04:06:52;;;;;;;1999.90;999.90;;;;;;;;;;6334967;22;20066;-74
2023/05/17 04:09:18;;;;;;;1999.90;999.90;;;;;;;;;;6307358;22;20056;-74
2023/05/17 04:11:44;;;;;;;1999.90;999.90;;;;;;;;;;6307681;22;20343;-74
2023/05/17 04:14:10;;;;;;;1999.90;999.90;;;;;;;;;;6335385;22;20038;-74
2023/05/17 04:16:36;;;;;;;1999.90;999.90;;;;;;;;;;6307288;22;20015;-74
2023/05/17 04:19:02;;;;;;;1999.90;999.90;;;;;;;;;;6306844;22;20461;-74
2023/05/17 04:21:28;;;;;;;1999.90;999.90;;;;;;;;;;6307440;22;20018;-74
2023/05/17 04:23:54;;;;;;;1999.90;999.90;;;;;;;;;;6335034;22;20007;-74
2023/05/17 04:26:21;;;;;;;1999.90;999.90;;;;;;;;;;6307555;22;20015;-74
2023/05/17 04:28:46;;;;;;;1999.90;999.90;;;;;;;;;;6335592;22;20037;-74
2023/05/17 04:31:15;;;;;;;1999.90;999.90;;;;;;;;;;6334427;22;20436;-74
2023/05/17 04:33:41;;;;;;;1999.90;999.90;;;;;;;;;;6334305;22;20014;-74
2023/05/17 04:36:07;;;;;;;1999.90;999.90;;;;;;;;;;6334294;22;20006;-74
2023/05/17 04:38:34;;;;;;;1999.90;999.90;;;;;;;;;;6335300;22;20087;-74
2023/05/17 04:41:03;;;;;;;1999.90;999.90;;;;;;;;;;6306766;22;20010;-74
2023/05/17 04:43:31;;;;;;;1999.90;999.90;;;;;;;;;;6335366;22;20023;-73
2023/05/17 04:45:57;;;;;;;1999.90;999.90;;;;;;;;;;6306651;22;20317;-74
2023/05/17 04:48:24;;;;;;;1999.90;999.90;;;;;;;;;;6301631;22;20019;-74
2023/05/17 04:50:51;;;;;;;1999.90;999.90;;;;;;;;;;6303420;22;20030;-73
2023/05/17 04:53:17;;;;;;;1999.90;999.90;;;;;;;;;;6303447;22;20011;-73
2023/05/17 04:55:44;;;;;;;1999.90;999.90;;;;;;;;;;6302772;22;20015;-74
2023/05/17 04:58:10;;;;;;;1999.90;999.90;;;;;;;;;;6275805;22;20030;-74
2023/05/17 05:00:36;;;;;;;1999.90;999.90;;;;;;;;;;6275602;22;20011;-73
2023/05/17 05:03:03;;;;;;;1999.90;999.90;;;;;;;;;;6301209;22;20578;-74
2023/05/17 05:05:30;;;;;;;1999.90;999.90;;;;;;;;;;6301216;22;20497;-74
2023/05/17 05:07:56;;;;;;;1999.90;999.90;;;;;;;;;;6302685;22;20058;-74
2023/05/17 05:10:22;;;;;;;1999.90;999.90;;;;;;;;;;6301872;22;20022;-74
2023/05/17 05:12:48;;;;;;;1999.90;999.90;;;;;;;;;;6301545;22;20482;-74
2023/05/17 05:15:14;;;;;;;1999.90;999.90;;;;;;;;;;6302692;22;20015;-73
2023/05/17 05:17:40;;;;;;;1999.90;999.90;;;;;;;;;;6300271;22;20566;-73
2023/05/17 05:20:07;;;;;;;1999.90;999.90;;;;;;;;;;6301052;22;20015;-76
2023/05/17 05:22:33;;;;;;;1999.90;999.90;;;;;;;;;;6302488;22;20023;-73
2023/05/17 05:24:59;;;;;;;1999.90;999.90;;;;;;;;;;6300311;22;20011;-73
2023/05/17 05:27:25;;;;;;;1999.90;999.90;;;;;;;;;;6299498;22;20471;-73
2023/05/17 05:29:51;;;;;;;1999.90;999.90;;;;;;;;;;6301431;22;20015;-73
2023/05/17 05:32:17;;;;;;;1999.90;999.90;;;;;;;;;;6301289;22;20447;-73
2023/05/17 05:34:43;;;;;;;1999.90;999.90;;;;;;;;;;6275304;22;20007;-73
2023/05/17 05:37:09;;;;;;;1999.90;999.90;;;;;;;;;;6301590;22;20007;-73
2023/05/17 05:39:35;;;;;;;1999.90;999.90;;;;;;;;;;6275835;22;20086;-73
2023/05/17 05:42:03;;;;;;;1999.90;999.90;;;;;;;;;;6300556;22;20011;-73
2023/05/17 05:44:29;;;;;;;1999.90;999.90;;;;;;;;;;6302476;22;20011;-73
2023/05/17 05:46:55;;;;;;;1999.90;999.90;;;;;;;;;;6303571;22;20050;-73
2023/05/17 05:49:21;;;;;;;1999.90;999.90;;;;;;;;;;6333684;22;20014;-73
2023/05/17 05:51:47;;;;;;;1999.90;999.90;;;;;;;;;;6307097;22;20014;-73
2023/05/17 05:54:13;;;;;;;1999.90;999.90;;;;;;;;;;6333888;22;20015;-73
2023/05/17 05:56:39;;;;;;;1999.90;999.90;;;;;;;;;;6333875;22;20018;-73
2023/05/17 05:59:05;;;;;;;1999.90;999.90;;;;;;;;;;6279982;22;20011;-73
2023/05/17 06:01:31;;;;;;;1999.90;999.90;;;;;;;;;;6334514;22;20370;-74
2023/05/17 06:03:57;;;;;;;1999.90;999.90;;;;;;;;;;6333166;22;20015;-73
2023/05/17 06:06:23;;;;;;;1999.90;999.90;;;;;;;;;;6333686;22;20454;-73
2023/05/17 06:08:49;;;;;;;1999.90;999.90;;;;;;;;;;6334880;22;20010;-73
2023/05/17 06:11:17;;;;;;;1999.90;999.90;;;;;;;;;;6306044;22;20011;-73
2023/05/17 06:13:43;;;;;;;1999.90;999.90;;;;;;;;;;6306216;22;20015;-73
2023/05/17 06:16:09;;;;;;;1999.90;999.90;;;;;;;;;;6334116;22;20015;-73
2023/05/17 06:18:35;;;;;;;1999.90;999.90;;;;;;;;;;6304372;22;20014;-74
2023/05/17 06:21:01;;;;;;;1999.90;999.90;;;;;;;;;;6304330;22;20104;-74
2023/05/17 06:23:27;;;;;;;1999.90;999.90;;;;;;;;;;6280376;22;20451;-74
2023/05/17 06:25:53;;;;;;;1999.90;999.90;;;;;;;;;;6305236;22;20023;-72
2023/05/17 06:28:19;;;;;;;1999.90;999.90;;;;;;;;;;6331997;22;20046;-73
2023/05/17 06:30:45;;;;;;;1999.90;999.90;;;;;;;;;;6279991;22;20010;-73
2023/05/17 06:33:11;;;;;;;1999.90;999.90;;;;;;;;;;6303514;22;20064;-73
2023/05/17 06:35:38;;;;;;;1999.90;999.90;;;;;;;;;;6305407;22;20388;-73
2023/05/17 06:38:04;;;;;;;1999.90;999.90;;;;;;;;;;6305616;22;20015;-73
2023/05/17 06:40:30;;;;;;;1999.90;999.90;;;;;;;;;;6330699;22;20011;-73
2023/05/17 06:42:56;;;;;;;1999.90;999.90;;;;;;;;;;6304866;22;20452;-73
2023/05/17 06:45:22;;;;;;;1999.90;999.90;;;;;;;;;;6333106;22;20022;-73
2023/05/17 06:47:48;;;;;;;1999.90;999.90;;;;;;;;;;6305231;22;20025;-74
2023/05/17 06:50:14;;;;;;;1999.90;999.90;;;;;;;;;;6333857;22;20027;-73
2023/05/17 06:52:40;;;;;;;1999.90;999.90;;;;;;;;;;6306181;22;20011;-73
2023/05/17 06:55:08;;;;;;;1999.90;999.90;;;;;;;;;;6305004;22;20019;-73
2023/05/17 06:57:34;;;;;;;1999.90;999.90;;;;;;;;;;6333223;22;20014;-73
2023/05/17 07:00:00;;;;;;;1999.90;999.90;;;;;;;;;;6333751;22;20011;-74
2023/05/17 07:02:26;;;;;;;1999.90;999.90;;;;;;;;;;6305049;22;20076;-75
2023/05/17 07:04:52;;;;;;;1999.90;999.90;;;;;;;;;;6334088;22;20281;-79
2023/05/17 07:07:18;;;;;;;1999.90;999.90;;;;;;;;;;6305232;22;20011;-74
2023/05/17 07:09:44;;;;;;;1999.90;999.90;;;;;;;;;;6307656;22;20017;-73
2023/05/17 07:12:10;;;;;;;1999.90;999.90;;;;;;;;;;6334047;22;20015;-75
2023/05/17 07:14:36;;;;;;;1999.90;999.90;;;;;;;;;;6306753;22;20520;-75
2023/05/17 07:17:02;;;;;;;1999.90;999.90;;;;;;;;;;6334589;22;20018;-75
2023/05/17 07:19:28;;;;;;;1999.90;999.90;;;;;;;;;;6335214;22;20336;-75
2023/05/17 07:21:54;;;;;;;1999.90;999.90;;;;;;;;;;6307509;22;20015;-74
2023/05/17 07:24:20;;;;;;;1999.90;999.90;;;;;;;;;;6307495;22;20052;-74
2023/05/17 07:26:46;;;;;;;1999.90;999.90;;;;;;;;;;6307170;22;20058;-74
2023/05/17 07:29:12;;;;;;;1999.90;999.90;;;;;;;;;;6305493;22;20469;-74
2023/05/17 07:31:38;;;;;;;1999.90;999.90;;;;;;;;;;6305203;22;20021;-78
2023/05/17 12:39:10;;;;;;;1999.90;999.90;;;;;;;;;;6277962;22;1265193;-76
2023/05/17 12:41:37;;;;;;;1999.90;999.90;;;;;;;;;;6311492;22;20346;-76
2023/05/17 12:44:03;;;;;;;1999.90;999.90;;;;;;;;;;6280320;22;20051;-76
2023/05/17 12:46:29;;;;;;;1999.90;999.90;;;;;;;;;;6304759;22;20022;-76
2023/05/17 12:49:01;;;;;;;1999.90;999.90;;;;;;;;;;6303737;22;20012;-76
2023/05/17 12:51:27;;;;;;;;;;;;;;;;;;6304876;22;20065;-75
2023/05/17 12:53:53;;;;;;;1999.90;999.90;;;;;;;;;;6304682;22;19915;-75
2023/05/17 12:56:21;;;;;;;1999.90;999.90;;;;;;;;;;6303897;22;20038;-75
2023/05/17 12:59:06;;;;;;;1999.90;999.90;;;;;;;;;;6276946;22;20016;-76
2023/05/17 13:01:32;;;;;;;1999.90;999.90;;;;;;;;;;6276479;22;20064;-75
2023/05/17 13:03:58;;;;;;;1999.90;999.90;;;;;;;;;;6303374;22;20022;-75
2023/05/17 13:06:24;;;;;;;1999.90;999.90;;;;;;;;;;6304179;22;20064;-75
2023/05/17 13:09:00;;;;;;;1999.90;999.90;;;;;;;;;;6276773;22;20012;-76
2023/05/17 13:11:26;;;;;;;1999.90;999.90;;;;;;;;;;6303696;22;20077;-76
2023/05/17 13:13:52;;;;;;;1999.90;999.90;;;;;;;;;;6276131;22;20015;-75
2023/05/17 13:16:28;;;;;;;1999.90;999.90;;;;;;;;;;6276445;22;20087;-76
2023/05/17 13:18:54;;;;;;;1999.90;999.90;;;;;;;;;;6303589;22;20007;-76
2023/05/17 13:21:20;;;;;;;1999.90;999.90;;;;;;;;;;6304607;22;20090;-77
2023/05/17 13:23:48;;;;;;;1999.90;999.90;;;;;;;;;;6304414;22;20019;-76
2023/05/17 13:26:14;;;;;;;1999.90;999.90;;;;;;;;;;6276802;22;20101;-77
2023/05/17 13:28:40;;;;;;;1999.90;999.90;;;;;;;;;;6303886;22;20333;-76
2023/05/17 13:31:06;;;;;;;1999.90;999.90;;;;;;;;;;6276282;22;20026;-76
2023/05/17 13:33:32;;;;;;;1999.90;999.90;;;;;;;;;;6303549;22;20011;-76
2023/05/17 13:35:58;;;;;;;1999.90;999.90;;;;;;;;;;6303917;22;20087;-77
2023/05/17 13:38:24;;;;;;;1999.90;999.90;;;;;;;;;;6303976;22;20015;-76
2023/05/17 13:40:50;;;;;;;1999.90;999.90;;;;;;;;;;6276468;22;20086;-76
2023/05/17 13:43:17;;;;;;;1999.90;999.90;;;;;;;;;;6276110;22;20034;-76
2023/05/17 13:45:43;;;;;;;1999.90;999.90;;;;;;;;;;6304545;22;20047;-77
2023/05/17 13:48:09;;;;;;;1999.90;999.90;;;;;;;;;;6275592;22;20444;-76
2023/05/17 13:50:35;;;;;;;1999.90;999.90;;;;;;;;;;6250936;22;20086;-77
2023/05/17 13:53:02;;;;;;;1999.90;999.90;;;;;;;;;;6303325;22;20381;-77
2023/05/17 13:55:28;;;;;;;1999.90;999.90;;;;;;;;;;6276036;22;20011;-77
2023/05/17 13:57:54;;;;;;;1999.90;999.90;;;;;;;;;;6276135;22;20496;-77
2023/05/17 14:00:20;;;;;;;1999.90;999.90;;;;;;;;;;6276300;22;20050;-76
2023/05/17 14:02:46;;;;;;;1999.90;999.90;;;;;;;;;;6276218;22;20333;-76
2023/05/17 14:05:13;;;;;;;1999.90;999.90;;;;;;;;;;6303374;22;20539;-76
2023/05/17 14:07:41;;;;;;;1999.90;999.90;;;;;;;;;;6303249;22;20015;-75
2023/05/17 14:10:11;;;;;;;1999.90;999.90;;;;;;;;;;6275898;22;20070;-75
2023/05/17 14:12:37;;;;;;;1999.90;999.90;;;;;;;;;;6300726;22;20023;-78
2023/05/17 14:15:04;;;;;;;1999.90;999.90;;;;;;;;;;6275186;22;20046;-77
2023/05/17 14:17:30;;;;;;;1999.90;999.90;;;;;;;;;;6302568;22;20011;-77
2023/05/17 14:19:56;;;;;;;1999.90;999.90;;;;;;;;;;6302706;22;20043;-78
2023/05/17 14:22:22;;;;;;;1999.90;999.90;;;;;;;;;;6303324;22;20020;-78
2023/05/17 14:24:48;;;;;;;1999.90;999.90;;;;;;;;;;6303032;22;20011;-78
2023/05/17 14:27:14;;;;;;;1999.90;999.90;;;;;;;;;;6300962;22;20359;-77
2023/05/17 14:29:40;;;;;;;1999.90;999.90;;;;;;;;;;6275746;22;20026;-76
2023/05/17 14:32:06;;;;;;;1999.90;999.90;;;;;;;;;;6302142;22;20015;-76
2023/05/17 14:34:32;;;;;;;1999.90;999.90;;;;;;;;;;6275743;22;20012;-76
2023/05/17 14:36:58;;;;;;;1999.90;999.90;;;;;;;;;;6303021;22;20112;-77
2023/05/17 14:39:24;;;;;;;1999.90;999.90;;;;;;;;;;6302752;22;20041;-76
2023/05/17 14:41:50;;;;;;;1999.90;999.90;;;;;;;;;;6303285;22;20099;-76
2023/05/17 14:44:16;;;;;;;1999.90;999.90;;;;;;;;;;6302603;22;20019;-73
2023/05/17 14:46:42;;;;;;;1999.90;999.90;;;;;;;;;;6302619;22;20011;-72
2023/05/17 14:49:08;;;;;;;1999.90;999.90;;;;;;;;;;6302294;22;20069;-72
2023/05/17 14:51:34;;;;;;;1999.90;999.90;;;;;;;;;;6303095;22;20014;-72
2023/05/17 14:54:00;;;;;;;1999.90;999.90;;;;;;;;;;6300348;22;20452;-72
2023/05/17 14:56:26;;;;;;;1999.90;999.90;;;;;;;;;;6302187;22;20012;-72
2023/05/17 14:58:52;;;;;;;1999.90;999.90;;;;;;;;;;6274010;22;20337;-72
2023/05/17 15:01:18;;;;;;;1999.90;999.90;;;;;;;;;;6301814;22;20007;-73
2023/05/17 15:03:44;;;;;;;1999.90;999.90;;;;;;;;;;6276181;22;20015;-72
2023/05/17 15:06:11;;;;;;;1999.90;999.90;;;;;;;;;;6302958;22;20022;-73
2023/05/17 15:08:38;;;;;;;1999.90;999.90;;;;;;;;;;6302462;22;20379;-72
2023/05/17 15:11:04;;;;;;;1999.90;999.90;;;;;;;;;;6302390;22;20011;-72
2023/05/17 15:13:30;;;;;;;1999.90;999.90;;;;;;;;;;6273590;22;20022;-72
2023/05/17 15:15:56;;;;;;;1999.90;999.90;;;;;;;;;;6273858;22;20011;-72
2023/05/17 15:18:22;;;;;;;1999.90;999.90;;;;;;;;;;6275337;22;20019;-72
2023/05/17 15:20:48;;;;;;;1999.90;999.90;;;;;;;;;;6274846;22;20015;-72
2023/05/17 15:23:15;;;;;;;1999.90;999.90;;;;;;;;;;6302972;22;20427;-72
2023/05/17 15:25:41;;;;;;;1999.90;999.90;;;;;;;;;;6273623;22;20019;-72
2023/05/17 15:28:07;;;;;;;1999.90;999.90;;;;;;;;;;6273699;22;20019;-72
2023/05/17 15:30:33;;;;;;;1999.90;999.90;;;;;;;;;;6274445;22;20021;-72
2023/05/17 15:32:59;;;;;;;1999.90;999.90;;;;;;;;;;6274077;22;20015;-73
2023/05/17 15:35:26;;;;;;;1999.90;999.90;;;;;;;;;;6302230;22;20021;-73
2023/05/17 15:37:52;;;;;;;1999.90;999.90;;;;;;;;;;6302455;22;20022;-72
2023/05/17 15:40:20;;;;;;;1999.90;999.90;;;;;;;;;;6302655;22;20065;-73
2023/05/17 15:42:46;;;;;;;1999.90;999.90;;;;;;;;;;6302503;22;20026;-72
2023/05/17 15:45:12;;;;;;;1999.90;999.90;;;;;;;;;;6274691;22;20503;-72
2023/05/17 15:47:39;;;;;;;1999.90;999.90;;;;;;;;;;6273928;22;20069;-72
2023/05/17 15:50:06;;;;;;;1999.90;999.90;;;;;;;;;;6274084;22;20019;-72
2023/05/17 15:52:32;;;;;;;1999.90;999.90;;;;;;;;;;6302744;22;20019;-73
2023/05/17 15:54:58;;;;;;;1999.90;999.90;;;;;;;;;;6300837;22;20050;-72
2023/05/17 15:57:24;;;;;;;1999.90;999.90;;;;;;;;;;6274582;22;20447;-72
2023/05/17 15:59:50;;;;;;;1999.90;999.90;;;;;;;;;;6273536;22;20015;-72
2023/05/17 16:02:17;;;;;;;1999.90;999.90;;;;;;;;;;6274160;22;20023;-72
2023/05/17 16:04:43;;;;;;;1999.90;999.90;;;;;;;;;;6275786;22;20143;-72
2023/05/17 16:07:09;;;;;;;1999.90;999.90;;;;;;;;;;6302014;22;20106;-72
2023/05/17 16:09:35;;;;;;;1999.90;999.90;;;;;;;;;;6301670;22;20618;-72
2023/05/17 16:12:01;;;;;;;1999.90;999.90;;;;;;;;;;6273028;22;20011;-72
2023/05/17 16:14:27;;;;;;;1999.90;999.90;;;;;;;;;;6302047;22;20456;-72
2023/05/17 16:16:54;;;;;;;1999.90;999.90;;;;;;;;;;6300483;22;20018;-73
2023/05/17 16:19:19;;;;;;;1999.90;999.90;;;;;;;;;;6303122;22;20352;-73
2023/05/17 16:21:46;;;;;;;1999.90;999.90;;;;;;;;;;6304709;22;20019;-73
2023/05/17 16:24:12;;;;;;;1999.90;999.90;;;;;;;;;;6276329;22;20015;-73
2023/05/17 16:26:38;;;;;;;1999.90;999.90;;;;;;;;;;6304149;22;20306;-73
2023/05/17 16:29:05;;;;;;;1999.90;999.90;;;;;;;;;;6303985;22;20087;-73
2023/05/17 16:31:31;;;;;;;1999.90;999.90;;;;;;;;;;6304601;22;20011;-73
2023/05/17 16:33:57;;;;;;;1999.90;999.90;;;;;;;;;;6276492;22;20019;-73
2023/05/17 16:36:23;;;;;;;1999.90;999.90;;;;;;;;;;6275710;22;20030;-73
2023/05/17 16:38:51;;;;;;;1999.90;999.90;;;;;;;;;;6276521;22;20019;-73
2023/05/17 16:41:17;;;;;;;1999.90;999.90;;;;;;;;;;6302187;22;20415;-73
2023/05/17 16:43:43;;;;;;;1999.90;999.90;;;;;;;;;;6304529;22;20065;-73
2023/05/17 16:46:09;;;;;;;1999.90;999.90;;;;;;;;;;6276480;22;20026;-73
2023/05/17 16:48:35;;;;;;;1999.90;999.90;;;;;;;;;;6303937;22;20078;-73
2023/05/17 16:51:01;;;;;;;1999.90;999.90;;;;;;;;;;6276967;22;20436;-73
2023/05/17 16:53:27;;;;;;;1999.90;999.90;;;;;;;;;;6303699;22;20015;-73
2023/05/17 16:55:53;;;;;;;1999.90;999.90;;;;;;;;;;6303263;22;20328;-74
2023/05/17 16:58:20;;;;;;;1999.90;999.90;;;;;;;;;;6303722;22;20407;-73
2023/05/17 17:00:46;;;;;;;1999.90;999.90;;;;;;;;;;6303902;22;20064;-73
2023/05/17 17:03:12;;;;;;;1999.90;999.90;;;;;;;;;;6303940;22;20015;-73
2023/05/17 17:05:38;;;;;;;1999.90;999.90;;;;;;;;;;6304003;22;20015;-71
2023/05/17 17:08:04;;;;;;;1999.90;999.90;;;;;;;;;;6303399;22;20011;-72
2023/05/17 17:10:30;;;;;;;1999.90;999.90;;;;;;;;;;6302320;22;20011;-71
2023/05/17 17:12:56;;;;;;;1999.90;999.90;;;;;;;;;;6302120;22;20440;-73
2023/05/17 17:15:22;;;;;;;1999.90;999.90;;;;;;;;;;6275922;22;20016;-73
2023/05/17 17:17:48;;;;;;;1999.90;999.90;;;;;;;;;;6304442;22;20385;-73
2023/05/17 17:20:14;;;;;;;1999.90;999.90;;;;;;;;;;6303583;22;20099;-73
2023/05/17 17:22:40;;;;;;;1999.90;999.90;;;;;;;;;;6303673;22;20046;-73
2023/05/17 17:25:06;;;;;;;1999.90;999.90;;;;;;;;;;6303324;22;20094;-73
2023/05/17 17:27:33;;;;;;;1999.90;999.90;;;;;;;;;;6301452;22;20019;-73
2023/05/17 17:29:59;;;;;;;1999.90;999.90;;;;;;;;;;6301986;22;20150;-73
2023/05/17 17:32:25;;;;;;;1999.90;999.90;;;;;;;;;;6303956;22;20336;-72
2023/05/17 17:34:51;;;;;;;1999.90;999.90;;;;;;;;;;6304534;22;20010;-73
2023/05/17 17:37:17;;;;;;;1999.90;999.90;;;;;;;;;;6302747;22;20011;-73
2023/05/17 17:39:43;;;;;;;1999.90;999.90;;;;;;;;;;6276191;22;20073;-73
2023/05/17 17:42:10;;;;;;;1999.90;999.90;;;;;;;;;;6303885;22;20424;-72
2023/05/17 17:44:36;;;;;;;1999.90;999.90;;;;;;;;;;6276436;22;20466;-73
2023/05/17 17:47:01;;;;;;;1999.90;999.90;;;;;;;;;;6303820;22;20022;-73
2023/05/17 17:49:28;;;;;;;1999.90;999.90;;;;;;;;;;6304156;22;20011;-73
2023/05/17 17:51:56;;;;;;;1999.90;999.90;;;;;;;;;;6275029;22;20337;-73
2023/05/17 17:54:22;;;;;;;1999.90;999.90;;;;;;;;;;6276031;22;20023;-73
2023/05/17 17:56:48;;;;;;;1999.90;999.90;;;;;;;;;;6303955;22;20339;-73
2023/05/17 17:59:14;;;;;;;1999.90;999.90;;;;;;;;;;6303629;22;20011;-73
2023/05/17 18:01:40;;;;;;;1999.90;999.90;;;;;;;;;;6303446;22;20082;-73
2023/05/17 18:04:08;;;;;;;1999.90;999.90;;;;;;;;;;6302754;22;20019;-74
2023/05/17 18:06:35;;;;;;;1999.90;999.90;;;;;;;;;;6302443;22;20019;-73
2023/05/17 18:09:01;;;;;;;1999.90;999.90;;;;;;;;;;6302791;22;20011;-73
2023/05/17 18:11:27;;;;;;;1999.90;999.90;;;;;;;;;;6302998;22;20015;-73
2023/05/17 18:13:55;;;;;;;1999.90;999.90;;;;;;;;;;6303610;22;20057;-73
2023/05/17 18:16:21;;;;;;;1999.90;999.90;;;;;;;;;;6303444;22;20344;-73
2023/05/17 18:18:47;;;;;;;1999.90;999.90;;;;;;;;;;6275596;22;20015;-73
2023/05/17 18:21:13;;;;;;;1999.90;999.90;;;;;;;;;;6275732;22;20315;-73
2023/05/17 18:23:39;;;;;;;1999.90;999.90;;;;;;;;;;6303241;22;20069;-73
2023/05/17 18:26:05;;;;;;;1999.90;999.90;;;;;;;;;;6302914;22;20158;-73
2023/05/17 18:28:31;;;;;;;1999.90;999.90;;;;;;;;;;6276118;22;20015;-73
2023/05/17 18:30:57;;;;;;;1999.90;999.90;;;;;;;;;;6301906;22;20015;-73
2023/05/17 18:33:24;;;;;;;1999.90;999.90;;;;;;;;;;6303574;22;20018;-73
2023/05/17 18:35:50;;;;;;;1999.90;999.90;;;;;;;;;;6304083;22;20015;-73
2023/05/17 18:38:16;;;;;;;1999.90;999.90;;;;;;;;;;6275212;22;20015;-73
2023/05/17 18:40:42;;;;;;;1999.90;999.90;;;;;;;;;;6303320;22;20497;-73
2023/05/17 18:43:08;;;;;;;1999.90;999.90;;;;;;;;;;6275384;22;20019;-73